createdAt,value
2022-08-03T00:01:49.835Z,101712.81
2022-08-03T00:04:17.074Z,101715.84
2022-08-03T00:06:43.939Z,101711.00
2022-08-03T00:09:11.344Z,101709.44
2022-08-03T00:11:38.171Z,101703.59
2022-08-03T00:14:08.472Z,101705.84
2022-08-03T00:16:35.429Z,101703.81
2022-08-03T00:19:03.247Z,101708.44
2022-08-03T00:21:29.945Z,101711.16
2022-08-03T00:23:56.714Z,101706.06
2022-08-03T00:26:24.381Z,101704.06
2022-08-03T00:28:51.072Z,101705.19
2022-08-03T00:31:39.898Z,101705.44
2022-08-03T00:34:10.536Z,101706.47
2022-08-03T00:36:39.194Z,101706.78
2022-08-03T00:39:05.815Z,101705.19
2022-08-03T00:41:32.328Z,101703.63
2022-08-03T00:43:59.029Z,101705.13
2022-08-03T00:46:25.556Z,101701.19
2022-08-03T00:48:53.958Z,101702.97
2022-08-03T00:51:21.825Z,101702.41
2022-08-03T00:53:49.464Z,101701.84
2022-08-03T00:56:17.412Z,101700.63
2022-08-03T00:58:45.749Z,101694.06
2022-08-03T01:01:12.789Z,101696.66
2022-08-03T01:03:39.548Z,101696.53
2022-08-03T01:06:16.702Z,101688.28
2022-08-03T01:09:11.156Z,101685.94
2022-08-03T01:12:01.069Z,101694.59
2022-08-03T01:14:38.434Z,101695.63
2022-08-03T01:17:25.582Z,101688.19
2022-08-03T01:20:04.077Z,101691.56
2022-08-03T01:22:52.422Z,101688.97
2022-08-03T01:25:45.806Z,101683.91
2022-08-03T01:28:15.350Z,101690.78
2022-08-03T01:30:45.412Z,101691.44
2022-08-03T01:33:24.341Z,101677.03
2022-08-03T01:35:57.328Z,101691.22
2022-08-03T01:38:27.141Z,101686.84
2022-08-03T01:40:55.490Z,101688.63
2022-08-03T01:44:28.092Z,101677.69
2022-08-03T01:46:15.828Z,101685.81
2022-08-03T01:48:44.887Z,101676.34
2022-08-03T01:51:13.495Z,101674.78
2022-08-03T01:53:43.743Z,101668.91
2022-08-03T01:56:11.735Z,101673.84
2022-08-03T01:58:40.682Z,101666.84
2022-08-03T02:01:09.357Z,101664.94
2022-08-03T02:04:00.181Z,101670.25
2022-08-03T02:07:00.030Z,101670.91
2022-08-03T02:09:21.547Z,101668.06
2022-08-03T02:11:49.591Z,101673.38
2022-08-03T02:14:17.304Z,101673.38
2022-08-03T02:16:45.879Z,101681.47
2022-08-03T02:19:13.629Z,101669.44
2022-08-03T02:21:57.233Z,101670.75
2022-08-03T02:24:28.842Z,101687.28
2022-08-03T02:26:59.554Z,101671.25
2022-08-03T02:29:39.709Z,101669.69
2022-08-03T02:32:12.251Z,101671.16
2022-08-03T02:34:40.793Z,101662.59
2022-08-03T02:37:10.316Z,101666.88
2022-08-03T02:39:39.506Z,101664.50
2022-08-03T02:42:08.897Z,101654.81
2022-08-03T02:44:36.998Z,101657.19
2022-08-03T02:47:10.365Z,101654.81
2022-08-03T02:49:50.991Z,101656.75
2022-08-03T02:52:21.863Z,101649.28
2022-08-03T02:54:51.292Z,101646.91
2022-08-03T02:57:19.970Z,101642.50
2022-08-03T02:59:47.315Z,101649.50
2022-08-03T03:02:16.594Z,101643.66
2022-08-03T03:04:58.840Z,101646.03
2022-08-03T03:07:37.243Z,101647.13
2022-08-03T03:10:21.625Z,101647.13
2022-08-03T03:12:50.339Z,101650.06
2022-08-03T03:15:16.897Z,101649.25
2022-08-03T03:17:44.342Z,101646.75
2022-08-03T03:20:12.161Z,101643.59
2022-08-03T03:22:40.093Z,101648.22
2022-08-03T03:25:10.388Z,101644.25
2022-08-03T03:27:37.466Z,101640.63
2022-08-03T03:30:05.629Z,101638.28
2022-08-03T03:32:32.689Z,101637.84
2022-08-03T03:35:00.482Z,101650.06
2022-08-03T03:37:27.703Z,101637.91
2022-08-03T03:39:55.253Z,101639.34
2022-08-03T03:42:22.194Z,101645.88
2022-08-03T03:44:48.957Z,101646.97
2022-08-03T03:47:15.683Z,101649.69
2022-08-03T03:49:44.098Z,101648.91
2022-08-03T03:52:11.392Z,101644.16
2022-08-03T03:54:44.344Z,101649.75
2022-08-03T03:57:13.166Z,101642.78
2022-08-03T03:59:43.831Z,101646.59
2022-08-03T04:02:11.984Z,101647.28
2022-08-03T04:04:57.700Z,101645.66
2022-08-03T04:07:44.842Z,101651.06
2022-08-03T04:10:38.427Z,101655.38
2022-08-03T04:13:10.095Z,101644.44
2022-08-03T04:15:38.557Z,101652.53
2022-08-03T04:18:09.564Z,101650.16
2022-08-03T04:20:39.102Z,101645.88
2022-08-03T04:23:13.596Z,101656.31
2022-08-03T04:25:43.585Z,101651.75
2022-08-03T04:28:30.386Z,101652.06
2022-08-03T04:30:59.602Z,101657.63
2022-08-03T04:33:29.473Z,101658.44
2022-08-03T04:36:02.903Z,101658.75
2022-08-03T04:38:36.702Z,101658.75
2022-08-03T04:41:04.834Z,101648.28
2022-08-03T04:43:34.171Z,101652.56
2022-08-03T04:46:02.660Z,101659.56
2022-08-03T04:48:29.351Z,101659.56
2022-08-03T04:50:56.025Z,101662.25
2022-08-03T04:53:22.595Z,101665.72
2022-08-03T04:55:49.916Z,101667.31
2022-08-03T04:58:16.493Z,101662.72
2022-08-03T05:00:43.381Z,101673.19
2022-08-03T05:03:23.499Z,101667.78
2022-08-03T05:05:52.661Z,101669.34
2022-08-03T05:08:20.748Z,101679.81
2022-08-03T05:10:55.439Z,101676.03
2022-08-03T05:13:25.440Z,101677.72
2022-08-03T05:15:53.188Z,101678.97
2022-08-03T05:18:19.835Z,101678.81
2022-08-03T05:20:46.572Z,101680.81
2022-08-03T05:23:13.328Z,101687.16
2022-08-03T05:25:39.853Z,101688.84
2022-08-03T05:28:16.199Z,101681.69
2022-08-03T05:30:42.756Z,101689.91
2022-08-03T05:33:09.437Z,101688.59
2022-08-03T05:35:55.962Z,101688.38
2022-08-03T05:38:28.628Z,101691.81
2022-08-03T05:41:22.684Z,101687.44
2022-08-03T05:43:44.159Z,101688.03
2022-08-03T05:46:11.989Z,101691.53
2022-08-03T05:48:39.258Z,101689.25
2022-08-03T05:51:11.101Z,101681.59
2022-08-03T05:53:38.604Z,101690.19
2022-08-03T05:56:15.349Z,101684.47
2022-08-03T05:58:46.213Z,101682.22
2022-08-03T06:01:13.265Z,101687.38
2022-08-03T06:03:40.492Z,101683.00
2022-08-03T06:06:06.961Z,101682.84
2022-08-03T06:08:34.620Z,101676.63
2022-08-03T06:11:01.430Z,101677.13
2022-08-03T06:13:28.095Z,101693.91
2022-08-03T06:15:54.623Z,101687.28
2022-08-03T06:18:21.455Z,101680.22
2022-08-03T06:20:49.423Z,101685.81
2022-08-03T06:23:17.686Z,101683.72
2022-08-03T06:25:44.845Z,101689.06
2022-08-03T06:28:42.610Z,101683.75
2022-08-03T06:31:02.099Z,101685.84
2022-08-03T06:34:31.218Z,101688.75
2022-08-03T06:36:15.802Z,101681.41
2022-08-03T06:38:42.382Z,101685.88
2022-08-03T06:41:08.883Z,101687.16
2022-08-03T06:43:38.146Z,101691.16
2022-08-03T06:46:24.169Z,101687.22
2022-08-03T06:48:50.953Z,101688.00
2022-08-03T06:51:17.526Z,101690.78
2022-08-03T06:53:44.217Z,101699.06
2022-08-03T06:56:11.364Z,101688.31
2022-08-03T06:58:38.428Z,101686.38
2022-08-03T07:01:05.292Z,101690.50
2022-08-03T07:03:31.975Z,101692.56
2022-08-03T07:05:59.825Z,101697.56
2022-08-03T07:08:33.933Z,101702.94
2022-08-03T07:11:01.949Z,101710.84
2022-08-03T07:13:28.792Z,101708.16
2022-08-03T07:15:56.772Z,101707.63
2022-08-03T07:18:27.573Z,101705.59
2022-08-03T07:20:57.242Z,101711.19
2022-08-03T07:23:24.006Z,101712.41
2022-08-03T07:25:51.030Z,101717.41
2022-08-03T07:28:18.136Z,101722.31
2022-08-03T07:30:44.885Z,101720.41
2022-08-03T07:33:11.557Z,101726.63
2022-08-03T07:35:38.269Z,101726.97
2022-08-03T07:38:04.818Z,101725.84
2022-08-03T07:40:31.937Z,101731.28
2022-08-03T07:42:58.936Z,101719.16
2022-08-03T07:45:26.751Z,101717.59
2022-08-03T07:47:54.276Z,101721.44
2022-08-03T07:50:22.526Z,101721.53
2022-08-03T07:52:50.618Z,101727.31
2022-08-03T07:55:20.721Z,101725.41
2022-08-03T07:57:48.728Z,101720.84
2022-08-03T08:00:18.599Z,101715.13
2022-08-03T08:02:45.896Z,101711.72
2022-08-03T08:05:12.630Z,101715.66
2022-08-03T08:07:39.749Z,101721.88
2022-08-03T08:10:08.657Z,101714.16
2022-08-03T08:12:36.471Z,101718.59
2022-08-03T08:15:04.637Z,101714.91
2022-08-03T08:17:31.646Z,101716.22
2022-08-03T08:19:58.634Z,101722.53
2022-08-03T08:22:30.263Z,101718.72
2022-08-03T08:24:59.461Z,101721.16
2022-08-03T08:27:26.320Z,101717.00
2022-08-03T08:29:55.126Z,101723.72
2022-08-03T08:32:26.467Z,101718.38
2022-08-03T08:34:54.697Z,101724.59
2022-08-03T08:37:21.417Z,101721.25
2022-08-03T08:39:48.185Z,101727.59
2022-08-03T08:42:15.983Z,101726.16
2022-08-03T08:44:42.889Z,101718.94
2022-08-03T08:47:11.345Z,101727.16
2022-08-03T08:49:40.306Z,101727.59
2022-08-03T08:52:25.162Z,101728.91
2022-08-03T08:54:58.374Z,101732.94
2022-08-03T08:57:42.399Z,101728.38
2022-08-03T09:00:14.613Z,101734.72
2022-08-03T09:02:45.477Z,101733.69
2022-08-03T09:05:14.324Z,101727.94
2022-08-03T09:07:42.564Z,101733.88
2022-08-03T09:10:13.263Z,101729.34
2022-08-03T09:12:45.029Z,101734.19
2022-08-03T09:15:31.318Z,101730.44
2022-08-03T09:18:01.182Z,101729.41
2022-08-03T09:20:29.866Z,101732.59
2022-08-03T09:22:59.453Z,101726.84
2022-08-03T09:25:30.164Z,101728.06
2022-08-03T09:28:07.268Z,101728.91
2022-08-03T09:30:35.324Z,101721.22
2022-08-03T09:33:05.395Z,101732.88
2022-08-03T09:35:53.130Z,101723.25
2022-08-03T09:38:26.519Z,101723.69
2022-08-03T09:41:01.001Z,101728.84
2022-08-03T09:43:28.217Z,101718.78
2022-08-03T09:46:04.553Z,101723.09
2022-08-03T09:48:33.342Z,101723.94
2022-08-03T09:51:13.479Z,101722.09
2022-08-03T09:53:57.283Z,101723.78
2022-08-03T09:56:39.096Z,101717.63
2022-08-03T09:59:06.016Z,101716.56
2022-08-03T10:01:35.011Z,101722.50
2022-08-03T10:04:04.379Z,101717.16
2022-08-03T10:06:32.924Z,101729.28
2022-08-03T10:09:09.489Z,101722.34
2022-08-03T10:11:41.244Z,101727.13
2022-08-03T10:14:11.530Z,101724.13
2022-08-03T10:16:40.381Z,101724.94
2022-08-03T10:19:08.562Z,101719.53
2022-08-03T10:21:46.671Z,101725.06
2022-08-03T10:24:17.098Z,101727.44
2022-08-03T10:26:49.751Z,101713.06
2022-08-03T10:29:22.761Z,101722.44
2022-08-03T10:31:57.834Z,101721.34
2022-08-03T10:34:28.854Z,101719.81
2022-08-03T10:37:01.463Z,101717.50
2022-08-03T10:39:29.986Z,101719.53
2022-08-03T10:41:59.972Z,101716.53
2022-08-03T10:44:37.390Z,101712.66
2022-08-03T10:47:05.154Z,101712.69
2022-08-03T10:49:34.403Z,101712.31
2022-08-03T10:52:13.005Z,101700.63
2022-08-03T10:55:10.900Z,101708.47
2022-08-03T10:57:58.135Z,101703.41
2022-08-03T11:00:27.997Z,101698.81
2022-08-03T11:03:14.147Z,101701.13
2022-08-03T11:05:54.474Z,101707.81
2022-08-03T11:08:35.069Z,101702.75
2022-08-03T11:11:21.598Z,101700.81
2022-08-03T11:14:04.970Z,101700.47
2022-08-03T11:16:37.094Z,101694.25
2022-08-03T11:19:06.972Z,101695.03
2022-08-03T11:21:52.735Z,101700.16
2022-08-03T11:24:39.117Z,101691.56
2022-08-03T11:27:14.846Z,101695.09
2022-08-03T11:30:10.318Z,101691.59
2022-08-03T11:32:48.602Z,101699.41
2022-08-03T11:35:15.518Z,101697.09
2022-08-03T11:38:03.302Z,101706.88
2022-08-03T11:40:38.980Z,101699.84
2022-08-03T11:43:30.700Z,101703.00
2022-08-03T11:46:03.430Z,101699.09
2022-08-03T11:48:39.541Z,101700.28
2022-08-03T11:51:08.767Z,101691.28
2022-08-03T11:53:41.922Z,101695.59
2022-08-03T11:56:12.706Z,101692.47
2022-08-03T11:59:16.737Z,101698.34
2022-08-03T12:01:35.535Z,101692.06
2022-08-03T12:04:06.122Z,101698.31
2022-08-03T12:06:55.141Z,101690.88
2022-08-03T12:09:22.194Z,101697.94
2022-08-03T12:11:51.636Z,101689.34
2022-08-03T12:14:48.862Z,101690.47
2022-08-03T12:17:14.961Z,101696.34
2022-08-03T12:19:42.964Z,101686.16
2022-08-03T12:22:09.627Z,101690.81
2022-08-03T12:24:47.167Z,101690.03
2022-08-03T12:27:26.201Z,101684.16
2022-08-03T12:29:58.128Z,101679.81
2022-08-03T12:32:26.430Z,101684.09
2022-08-03T12:34:53.044Z,101683.31
2022-08-03T12:37:22.677Z,101689.19
2022-08-03T12:40:00.631Z,101698.53
2022-08-03T12:42:35.438Z,101688.34
2022-08-03T12:45:21.166Z,101693.44
2022-08-03T12:47:55.137Z,101694.22
2022-08-03T12:50:34.977Z,101693.06
2022-08-03T12:53:07.917Z,101682.03
2022-08-03T12:55:56.388Z,101681.25
2022-08-03T12:58:34.789Z,101686.31
2022-08-03T13:01:09.699Z,101687.47
2022-08-03T13:03:50.196Z,101690.19
2022-08-03T13:06:20.626Z,101678.00
2022-08-03T13:08:48.348Z,101678.41
2022-08-03T13:11:58.050Z,101675.66
2022-08-03T13:14:17.487Z,101668.19
2022-08-03T13:16:47.093Z,101665.81
2022-08-03T13:19:15.502Z,101676.75
2022-08-03T13:22:01.333Z,101674.72
2022-08-03T13:24:30.526Z,101683.34
2022-08-03T13:26:58.398Z,101680.66
2022-08-03T13:29:24.952Z,101679.09
2022-08-03T13:31:52.819Z,101674.44
2022-08-03T13:34:23.555Z,101679.06
2022-08-03T13:37:09.300Z,101675.19
2022-08-03T13:39:57.955Z,101676.72
2022-08-03T13:42:23.054Z,101681.72
2022-08-03T13:44:49.762Z,101679.34
2022-08-03T13:47:16.459Z,101682.50
2022-08-03T13:50:00.136Z,101683.31
2022-08-03T13:52:30.134Z,101680.22
2022-08-03T13:54:56.765Z,101670.41
2022-08-03T13:58:02.243Z,101687.25
2022-08-03T14:00:10.700Z,101686.06
2022-08-03T14:02:38.444Z,101685.28
2022-08-03T14:05:05.469Z,101671.59
2022-08-03T14:07:32.060Z,101679.75
2022-08-03T14:09:58.913Z,101675.81
2022-08-03T14:12:25.518Z,101683.25
2022-08-03T14:14:52.036Z,101668.31
2022-08-03T14:17:19.120Z,101673.81
2022-08-03T14:19:53.446Z,101670.28
2022-08-03T14:22:21.548Z,101661.66
2022-08-03T14:24:49.210Z,101649.06
2022-08-03T14:27:16.289Z,101647.09
2022-08-03T14:29:42.857Z,101650.31
2022-08-03T14:32:13.190Z,101641.72
2022-08-03T14:34:40.841Z,101646.50
2022-08-03T14:37:07.481Z,101657.06
2022-08-03T14:42:20.660Z,101652.78
2022-08-03T14:44:47.650Z,101634.72
2022-08-03T14:47:14.464Z,101643.69
2022-08-03T14:50:37.134Z,101642.84
2022-08-03T14:52:28.010Z,101632.25
2022-08-03T14:54:54.614Z,101633.44
2022-08-03T14:57:21.796Z,101629.88
2022-08-03T14:59:56.148Z,101629.03
2022-08-03T15:02:24.932Z,101625.13
2022-08-03T15:04:52.157Z,101626.25
2022-08-03T15:07:19.233Z,101626.66
2022-08-03T15:09:46.180Z,101627.03
2022-08-03T15:12:12.736Z,101623.53
2022-08-03T15:14:39.285Z,101625.09
2022-08-03T15:17:06.540Z,101607.00
2022-08-03T15:20:03.978Z,101621.88
2022-08-03T15:22:25.406Z,101626.25
2022-08-03T15:25:03.532Z,101629.75
2022-08-03T15:27:30.230Z,101614.88
2022-08-03T15:30:04.968Z,101618.00
2022-08-03T15:32:34.201Z,101618.72
2022-08-03T15:35:00.948Z,101619.19
2022-08-03T15:37:27.932Z,101619.59
2022-08-03T15:39:58.830Z,101613.69
2022-08-03T15:42:33.422Z,101627.78
2022-08-03T15:45:00.078Z,101619.59
2022-08-03T15:47:27.909Z,101616.06
2022-08-03T15:49:54.643Z,101606.28
2022-08-03T15:52:21.463Z,101612.16
2022-08-03T15:54:48.254Z,101608.69
2022-08-03T15:57:14.772Z,101607.94
2022-08-03T15:59:41.267Z,101605.22
2022-08-03T16:02:07.773Z,101604.84
2022-08-03T16:04:34.466Z,101608.81
2022-08-03T16:07:01.216Z,101605.31
2022-08-03T16:09:42.898Z,101607.69
2022-08-03T16:12:15.482Z,101604.16
2022-08-03T16:14:52.341Z,101603.78
2022-08-03T16:17:20.280Z,101597.50
2022-08-03T16:19:47.022Z,101600.56
2022-08-03T16:22:14.353Z,101597.84
2022-08-03T16:24:41.388Z,101596.28
2022-08-03T16:27:15.586Z,101599.81
2022-08-03T16:29:44.508Z,101592.03
2022-08-03T16:32:11.756Z,101590.44
2022-08-03T16:34:39.329Z,101587.34
2022-08-03T16:37:35.438Z,101579.94
2022-08-03T16:39:54.159Z,101574.44
2022-08-03T16:42:20.720Z,101580.69
2022-08-03T16:44:47.503Z,101574.00
2022-08-03T16:47:21.752Z,101574.84
2022-08-03T16:49:54.298Z,101581.13
2022-08-03T16:52:23.774Z,101577.22
2022-08-03T16:54:53.760Z,101579.13
2022-08-03T16:57:29.978Z,101584.22
2022-08-03T17:00:34.058Z,101588.16
2022-08-03T17:03:04.318Z,101583.09
2022-08-03T17:05:47.479Z,101579.97
2022-08-03T17:08:15.427Z,101582.31
2022-08-03T17:10:45.216Z,101583.88
2022-08-03T17:13:22.066Z,101585.44
2022-08-03T17:15:57.710Z,101581.94
2022-08-03T17:18:26.672Z,101574.47
2022-08-03T17:20:55.480Z,101585.88
2022-08-03T17:23:47.819Z,101587.09
2022-08-03T17:26:21.703Z,101586.38
2022-08-03T17:28:57.438Z,101590.72
2022-08-03T17:31:31.212Z,101580.97
2022-08-03T17:34:01.743Z,101578.25
2022-08-03T17:37:01.661Z,101583.00
2022-08-03T17:39:17.133Z,101579.53
2022-08-03T17:41:50.139Z,101585.78
2022-08-03T17:44:31.975Z,101586.59
2022-08-03T17:47:06.661Z,101587.38
2022-08-03T17:49:39.850Z,101586.63
2022-08-03T17:52:31.059Z,101591.31
2022-08-03T17:55:54.916Z,101587.81
2022-08-03T17:58:01.416Z,101592.13
2022-08-03T18:00:51.543Z,101587.06
2022-08-03T18:03:57.914Z,101588.25
2022-08-03T18:06:28.956Z,101594.56
2022-08-03T18:09:04.872Z,101589.47
2022-08-03T18:11:50.742Z,101589.91
2022-08-03T18:14:26.609Z,101590.28
2022-08-03T18:17:00.533Z,101583.28
2022-08-03T18:20:02.550Z,101589.53
2022-08-03T18:22:16.480Z,101580.16
2022-08-03T18:24:46.474Z,101588.00
2022-08-03T18:27:16.020Z,101585.28
2022-08-03T18:29:47.041Z,101585.28
2022-08-03T18:35:03.352Z,101582.94
2022-08-03T18:37:32.696Z,101591.16
2022-08-03T18:40:21.258Z,101588.81
2022-08-03T18:42:50.917Z,101588.03
2022-08-03T18:45:56.284Z,101591.53
2022-08-03T18:48:46.173Z,101590.78
2022-08-03T18:51:28.771Z,101582.56
2022-08-03T18:54:45.447Z,101586.50
2022-08-03T18:57:21.829Z,101584.16
2022-08-03T19:00:12.252Z,101586.13
2022-08-03T19:02:50.133Z,101595.88
2022-08-03T19:05:20.389Z,101595.13
2022-08-03T19:07:58.270Z,101585.75
2022-08-03T19:10:34.815Z,101591.63
2022-08-03T19:13:11.449Z,101585.00
2022-08-03T19:15:51.318Z,101595.53
2022-08-03T19:18:20.609Z,101592.03
2022-08-03T19:23:38.005Z,101602.16
2022-08-03T19:26:07.621Z,101602.16
2022-08-03T19:28:58.024Z,101602.94
2022-08-03T19:31:30.716Z,101602.94
2022-08-03T19:34:00.386Z,101605.28
2022-08-03T19:36:32.726Z,101606.81
2022-08-03T19:38:59.425Z,101609.53
2022-08-03T19:41:42.349Z,101611.06
2022-08-03T19:44:19.891Z,101622.00
2022-08-03T19:46:53.418Z,101620.78
2022-08-03T19:49:26.009Z,101618.84
2022-08-03T19:52:14.800Z,101618.44
2022-08-03T19:54:54.210Z,101618.06
2022-08-03T19:57:34.233Z,101612.97
2022-08-03T20:00:03.382Z,101615.69
2022-08-03T20:02:34.248Z,101607.91
2022-08-03T20:05:01.397Z,101613.75
2022-08-03T20:07:34.180Z,101613.75
2022-08-03T20:10:04.765Z,101612.97
2022-08-03T20:12:39.072Z,101611.38
2022-08-03T20:15:09.341Z,101599.25
2022-08-03T20:17:56.801Z,101603.56
2022-08-03T20:20:27.162Z,101599.25
2022-08-03T20:22:57.823Z,101591.03
2022-08-03T20:25:38.280Z,101592.97
2022-08-03T20:28:14.538Z,101585.56
2022-08-03T20:30:47.194Z,101586.31
2022-08-03T20:33:18.331Z,101590.19
2022-08-03T20:35:48.919Z,101590.19
2022-08-03T20:38:17.275Z,101588.97
2022-08-03T20:40:45.091Z,101582.72
2022-08-03T20:43:11.781Z,101587.00
2022-08-03T20:48:28.194Z,101578.31
2022-08-03T20:50:56.563Z,101593.88
2022-08-03T20:53:57.263Z,101582.16
2022-08-03T20:56:11.442Z,101582.53
2022-08-03T20:58:41.915Z,101578.22
2022-08-03T21:01:08.718Z,101584.81
2022-08-03T21:03:40.588Z,101587.47
2022-08-03T21:06:12.068Z,101581.19
2022-08-03T21:08:48.211Z,101581.16
2022-08-03T21:11:19.266Z,101579.59
2022-08-03T21:12:58.266Z,101593.88
2022-08-03T21:13:01.994Z,101600.59
2022-08-03T21:13:14.022Z,101578.38
2022-08-03T21:13:51.804Z,101578.31
2022-08-03T21:16:21.558Z,101577.84
2022-08-03T21:18:52.194Z,101577.75
2022-08-03T21:21:23.415Z,101568.34
2022-08-03T21:23:52.960Z,101562.38
2022-08-03T21:26:22.607Z,101559.63
2022-08-03T21:28:53.857Z,101563.50
2022-08-03T21:31:24.671Z,101556.50
2022-08-03T21:33:55.596Z,101559.59
2022-08-03T21:36:22.469Z,101552.97
2022-08-03T21:38:56.589Z,101554.50
2022-08-03T21:41:25.021Z,101552.56
2022-08-03T21:43:51.652Z,101562.25
2022-08-03T21:46:20.017Z,101558.31
2022-08-03T21:48:53.483Z,101557.56
2022-08-03T21:51:23.704Z,101545.88
2022-08-03T21:54:03.451Z,101546.25
2022-08-03T21:56:41.399Z,101548.88
2022-08-03T21:59:15.805Z,101547.72
2022-08-03T22:01:45.593Z,101551.19
2022-08-03T22:04:50.922Z,101549.97
2022-08-03T22:07:04.644Z,101543.28
2022-08-03T22:09:34.228Z,101544.06
2022-08-03T22:12:00.883Z,101549.09
2022-08-03T22:14:27.668Z,101550.22
2022-08-03T22:16:54.752Z,101551.75
2022-08-03T22:19:21.699Z,101549.81
2022-08-03T22:21:49.150Z,101541.63
2022-08-03T22:24:19.716Z,101543.94
2022-08-03T22:27:09.588Z,101542.34
2022-08-03T22:29:40.238Z,101545.38
2022-08-03T22:32:07.049Z,101536.44
2022-08-03T22:34:34.304Z,101548.47
2022-08-03T22:37:04.690Z,101539.47
2022-08-03T22:39:31.655Z,101538.66
2022-08-03T22:42:00.227Z,101536.69
2022-08-03T22:44:27.942Z,101535.91
2022-08-03T22:46:55.502Z,101529.22
2022-08-03T22:49:22.493Z,101526.81
2022-08-03T22:51:51.727Z,101527.97
2022-08-03T22:54:18.680Z,101528.69
2022-08-03T22:56:46.976Z,101530.19
2022-08-03T22:59:40.082Z,101530.94
2022-08-03T23:02:20.169Z,101522.38
2022-08-03T23:04:52.332Z,101520.38
2022-08-03T23:07:26.913Z,101515.28
2022-08-03T23:09:54.621Z,101526.16
2022-08-03T23:12:22.630Z,101519.06
2022-08-03T23:14:55.255Z,101524.09
2022-08-03T23:17:27.832Z,101525.22
2022-08-03T23:19:57.796Z,101523.25
2022-08-03T23:22:29.429Z,101520.47
2022-08-03T23:24:59.375Z,101526.66
2022-08-03T23:27:27.813Z,101521.16
2022-08-03T23:29:57.613Z,101518.72
2022-08-03T23:32:27.339Z,101521.03
2022-08-03T23:35:18.699Z,101520.63
2022-08-03T23:38:04.642Z,101520.53
2022-08-03T23:40:33.565Z,101520.63
2022-08-03T23:43:02.079Z,101514.13
2022-08-03T23:45:31.279Z,101527.97
2022-08-03T23:47:57.865Z,101525.50
2022-08-03T23:50:24.589Z,101525.00
2022-08-03T23:53:10.994Z,101524.97
2022-08-03T23:55:47.315Z,101517.16
2022-08-03T23:58:34.836Z,101518.25
